PKIAS WAYY-WAVV
Flight info
| Callsign | PKIAS |
|---|---|
| Flight time | 0h 54m |
| Altitude | 9000 |
| Route | DCT |
| Aircraft | DA62/L-V/N |
Departure
| Time | 2026-05-04 12:39 |
|---|---|
| Airport | Mozes Kilangin Airport (WAYY) |
Arrival
| Time | 2026-05-04 13:33 |
|---|---|
| Airport | Wamena Airport (WAVV) |
| Time | Latitude | Longitude | Altitude | Speed | Heading |
|---|---|---|---|---|---|
| 2026-05-04 12:23 | -4.52608 | 136.87805 | 105 ft | 0 kts | 30° |
| 2026-05-04 12:36 | -4.52597 | 136.87803 | 105 ft | 3 kts | 314° |
| 2026-05-04 12:37 | -4.52576 | 136.87786 | 105 ft | 5 kts | 328° |
| 2026-05-04 12:37 | -4.52523 | 136.87784 | 105 ft | 13 kts | 29° |
| 2026-05-04 12:37 | -4.52439 | 136.87839 | 104 ft | 14 kts | 35° |
| 2026-05-04 12:37 | -4.52441 | 136.87894 | 103 ft | 15 kts | 122° |
| 2026-05-04 12:38 | -4.52604 | 136.88155 | 104 ft | 69 kts | 123° |
| 2026-05-04 12:38 | -4.52918 | 136.88669 | 117 ft | 101 kts | 121° |
| 2026-05-04 12:38 | -4.53310 | 136.89305 | 259 ft | 109 kts | 120° |
| 2026-05-04 12:38 | -4.53474 | 136.90021 | 544 ft | 106 kts | 73° |
| 2026-05-04 12:39 | -4.53110 | 136.90651 | 842 ft | 103 kts | 54° |
| 2026-05-04 12:39 | -4.52682 | 136.91211 | 1146 ft | 103 kts | 52° |
| 2026-05-04 12:39 | -4.52198 | 136.91765 | 1403 ft | 108 kts | 57° |
| 2026-05-04 12:39 | -4.52037 | 136.92513 | 1589 ft | 116 kts | 98° |
| 2026-05-04 12:40 | -4.52069 | 136.93323 | 1837 ft | 117 kts | 95° |
| 2026-05-04 12:40 | -4.52111 | 136.94153 | 2080 ft | 120 kts | 95° |
| 2026-05-04 12:40 | -4.52155 | 136.94998 | 2325 ft | 124 kts | 95° |
| 2026-05-04 12:40 | -4.52205 | 136.95859 | 2568 ft | 124 kts | 95° |
| 2026-05-04 12:41 | -4.52259 | 136.96730 | 2810 ft | 126 kts | 95° |
| 2026-05-04 12:41 | -4.52316 | 136.97608 | 3061 ft | 127 kts | 95° |
| 2026-05-04 12:41 | -4.52378 | 136.98495 | 3304 ft | 128 kts | 95° |
| 2026-05-04 12:41 | -4.52443 | 136.99388 | 3540 ft | 129 kts | 96° |
| 2026-05-04 12:42 | -4.52513 | 137.00286 | 3783 ft | 130 kts | 95° |
| 2026-05-04 12:42 | -4.52588 | 137.01197 | 4025 ft | 132 kts | 96° |
| 2026-05-04 12:42 | -4.52665 | 137.02104 | 4261 ft | 133 kts | 96° |
| 2026-05-04 12:42 | -4.52747 | 137.03030 | 4513 ft | 134 kts | 96° |
| 2026-05-04 12:43 | -4.52835 | 137.03966 | 4759 ft | 135 kts | 97° |
| 2026-05-04 12:43 | -4.52926 | 137.04906 | 4998 ft | 136 kts | 97° |
| 2026-05-04 12:43 | -4.53021 | 137.05847 | 5234 ft | 136 kts | 97° |
| 2026-05-04 12:43 | -4.53119 | 137.06794 | 5474 ft | 137 kts | 97° |
| 2026-05-04 12:44 | -4.53221 | 137.07745 | 5715 ft | 138 kts | 97° |
| 2026-05-04 12:44 | -4.53327 | 137.08699 | 5961 ft | 138 kts | 97° |
| 2026-05-04 12:44 | -4.53437 | 137.09656 | 6209 ft | 139 kts | 97° |
| 2026-05-04 12:44 | -4.53552 | 137.10620 | 6447 ft | 140 kts | 98° |
| 2026-05-04 12:45 | -4.53671 | 137.11590 | 6678 ft | 141 kts | 97° |
| 2026-05-04 12:45 | -4.53795 | 137.12577 | 6913 ft | 145 kts | 98° |
| 2026-05-04 12:45 | -4.53927 | 137.13587 | 7148 ft | 147 kts | 98° |
| 2026-05-04 12:45 | -4.54065 | 137.14611 | 7392 ft | 150 kts | 99° |
| 2026-05-04 12:46 | -4.54210 | 137.15653 | 7627 ft | 152 kts | 98° |
| 2026-05-04 12:46 | -4.54013 | 137.16677 | 7863 ft | 155 kts | 59° |
| 2026-05-04 12:46 | -4.53558 | 137.17654 | 8103 ft | 155 kts | 74° |
| 2026-05-04 12:46 | -4.53446 | 137.18726 | 8343 ft | 155 kts | 91° |
| 2026-05-04 12:47 | -4.53464 | 137.19810 | 8585 ft | 156 kts | 94° |
| 2026-05-04 12:47 | -4.53507 | 137.20891 | 8827 ft | 155 kts | 93° |
| 2026-05-04 12:47 | -4.53561 | 137.21966 | 9073 ft | 154 kts | 94° |
| 2026-05-04 12:47 | -4.53616 | 137.23034 | 9323 ft | 153 kts | 94° |
| 2026-05-04 12:48 | -4.53672 | 137.24098 | 9576 ft | 153 kts | 94° |
| 2026-05-04 12:48 | -4.53727 | 137.25158 | 9827 ft | 152 kts | 94° |
| 2026-05-04 12:48 | -4.53783 | 137.26220 | 10058 ft | 152 kts | 94° |
| 2026-05-04 12:48 | -4.53838 | 137.27276 | 10285 ft | 152 kts | 94° |
| 2026-05-04 12:49 | -4.53893 | 137.28335 | 10514 ft | 152 kts | 94° |
| 2026-05-04 12:49 | -4.53948 | 137.29381 | 10743 ft | 153 kts | 94° |
| 2026-05-04 12:49 | -4.54004 | 137.30444 | 10978 ft | 153 kts | 94° |
| 2026-05-04 12:49 | -4.54059 | 137.31508 | 11214 ft | 153 kts | 94° |
| 2026-05-04 12:50 | -4.54115 | 137.32576 | 11449 ft | 153 kts | 94° |
| 2026-05-04 12:50 | -4.54171 | 137.33645 | 11687 ft | 154 kts | 94° |
| 2026-05-04 12:50 | -4.54227 | 137.34715 | 11927 ft | 154 kts | 94° |
| 2026-05-04 12:50 | -4.54284 | 137.35790 | 12169 ft | 155 kts | 93° |
| 2026-05-04 12:51 | -4.54340 | 137.36868 | 12413 ft | 155 kts | 94° |
| 2026-05-04 12:51 | -4.54397 | 137.37951 | 12659 ft | 156 kts | 94° |
| 2026-05-04 12:51 | -4.54454 | 137.39038 | 12906 ft | 157 kts | 93° |
| 2026-05-04 12:51 | -4.54513 | 137.40160 | 12996 ft | 168 kts | 93° |
| 2026-05-04 12:52 | -4.54578 | 137.41376 | 12997 ft | 178 kts | 93° |
| 2026-05-04 12:52 | -4.54642 | 137.42638 | 13001 ft | 186 kts | 93° |
| 2026-05-04 12:52 | -4.54712 | 137.43959 | 13004 ft | 193 kts | 93° |
| 2026-05-04 12:52 | -4.54783 | 137.45317 | 13005 ft | 197 kts | 93° |
| 2026-05-04 12:53 | -4.54854 | 137.46685 | 13009 ft | 200 kts | 93° |
| 2026-05-04 12:53 | -4.54928 | 137.48101 | 13008 ft | 202 kts | 93° |
| 2026-05-04 12:53 | -4.55001 | 137.49497 | 13009 ft | 203 kts | 93° |
| 2026-05-04 12:53 | -4.55076 | 137.50915 | 13009 ft | 204 kts | 93° |
| 2026-05-04 12:54 | -4.55150 | 137.52334 | 13009 ft | 204 kts | 93° |
| 2026-05-04 12:54 | -4.55224 | 137.53753 | 13008 ft | 204 kts | 93° |
| 2026-05-04 12:54 | -4.55298 | 137.55168 | 13009 ft | 203 kts | 93° |
| 2026-05-04 12:54 | -4.55372 | 137.56582 | 13008 ft | 203 kts | 93° |
| 2026-05-04 12:55 | -4.55446 | 137.57996 | 13008 ft | 203 kts | 93° |
| 2026-05-04 12:55 | -4.55520 | 137.59411 | 13008 ft | 203 kts | 93° |
| 2026-05-04 12:55 | -4.55594 | 137.60827 | 13008 ft | 203 kts | 93° |
| 2026-05-04 12:55 | -4.55668 | 137.62241 | 13008 ft | 203 kts | 93° |
| 2026-05-04 12:56 | -4.55742 | 137.63653 | 13008 ft | 203 kts | 93° |
| 2026-05-04 12:56 | -4.55816 | 137.65066 | 13008 ft | 203 kts | 93° |
| 2026-05-04 12:56 | -4.55890 | 137.66478 | 13008 ft | 203 kts | 93° |
| 2026-05-04 12:56 | -4.55964 | 137.67887 | 13008 ft | 203 kts | 93° |
| 2026-05-04 12:57 | -4.56038 | 137.69300 | 13008 ft | 203 kts | 93° |
| 2026-05-04 12:57 | -4.56111 | 137.70714 | 13008 ft | 203 kts | 93° |
| 2026-05-04 12:57 | -4.56185 | 137.72124 | 13005 ft | 203 kts | 93° |
| 2026-05-04 12:57 | -4.56259 | 137.73536 | 13005 ft | 203 kts | 93° |
| 2026-05-04 12:58 | -4.56333 | 137.74947 | 13006 ft | 203 kts | 93° |
| 2026-05-04 12:58 | -4.56407 | 137.76355 | 13005 ft | 203 kts | 93° |
| 2026-05-04 12:58 | -4.56481 | 137.77765 | 13005 ft | 203 kts | 93° |
| 2026-05-04 12:58 | -4.56554 | 137.79180 | 13005 ft | 203 kts | 93° |
| 2026-05-04 12:59 | -4.56628 | 137.80590 | 13002 ft | 202 kts | 93° |
| 2026-05-04 12:59 | -4.56701 | 137.81979 | 13002 ft | 202 kts | 93° |
| 2026-05-04 12:59 | -4.56775 | 137.83384 | 13002 ft | 202 kts | 93° |
| 2026-05-04 12:59 | -4.56848 | 137.84785 | 13002 ft | 202 kts | 93° |
| 2026-05-04 13:00 | -4.56921 | 137.86188 | 13001 ft | 201 kts | 94° |
| 2026-05-04 13:00 | -4.56994 | 137.87590 | 13001 ft | 201 kts | 93° |
| 2026-05-04 13:00 | -4.57068 | 137.88992 | 13001 ft | 201 kts | 93° |
| 2026-05-04 13:00 | -4.57142 | 137.90393 | 13001 ft | 201 kts | 93° |
| 2026-05-04 13:01 | -4.57215 | 137.91794 | 13002 ft | 201 kts | 93° |
| 2026-05-04 13:01 | -4.57288 | 137.93194 | 13002 ft | 201 kts | 93° |
| 2026-05-04 13:01 | -4.57361 | 137.94595 | 13002 ft | 201 kts | 93° |
| 2026-05-04 13:01 | -4.57434 | 137.95995 | 13002 ft | 201 kts | 93° |
| 2026-05-04 13:02 | -4.57508 | 137.97396 | 13002 ft | 201 kts | 93° |
| 2026-05-04 13:02 | -4.57581 | 137.98796 | 13002 ft | 201 kts | 93° |
| 2026-05-04 13:02 | -4.57654 | 138.00200 | 13002 ft | 201 kts | 93° |
| 2026-05-04 13:02 | -4.57728 | 138.01600 | 13003 ft | 201 kts | 93° |
| 2026-05-04 13:03 | -4.57800 | 138.02976 | 13003 ft | 200 kts | 93° |
| 2026-05-04 13:03 | -4.57873 | 138.04367 | 13003 ft | 200 kts | 93° |
| 2026-05-04 13:03 | -4.57946 | 138.05775 | 13003 ft | 199 kts | 93° |
| 2026-05-04 13:03 | -4.58019 | 138.07158 | 13003 ft | 199 kts | 93° |
| 2026-05-04 13:04 | -4.58090 | 138.08529 | 13003 ft | 199 kts | 93° |
| 2026-05-04 13:04 | -4.58163 | 138.09913 | 13003 ft | 199 kts | 93° |
| 2026-05-04 13:04 | -4.58235 | 138.11297 | 13003 ft | 199 kts | 93° |
| 2026-05-04 13:04 | -4.58307 | 138.12679 | 13003 ft | 199 kts | 93° |
| 2026-05-04 13:05 | -4.58380 | 138.14062 | 13003 ft | 199 kts | 93° |
| 2026-05-04 13:05 | -4.58452 | 138.15445 | 13003 ft | 199 kts | 93° |
| 2026-05-04 13:05 | -4.58524 | 138.16828 | 13003 ft | 199 kts | 93° |
| 2026-05-04 13:05 | -4.58597 | 138.18211 | 13003 ft | 199 kts | 93° |
| 2026-05-04 13:06 | -4.58669 | 138.19591 | 13003 ft | 199 kts | 93° |
| 2026-05-04 13:06 | -4.58742 | 138.20979 | 13003 ft | 199 kts | 93° |
| 2026-05-04 13:06 | -4.58814 | 138.22363 | 13003 ft | 199 kts | 93° |
| 2026-05-04 13:06 | -4.58887 | 138.23752 | 13005 ft | 199 kts | 93° |
| 2026-05-04 13:07 | -4.58959 | 138.25141 | 13002 ft | 200 kts | 93° |
| 2026-05-04 13:07 | -4.59032 | 138.26533 | 13002 ft | 200 kts | 93° |
| 2026-05-04 13:07 | -4.59105 | 138.27925 | 13002 ft | 200 kts | 93° |
| 2026-05-04 13:07 | -4.59178 | 138.29319 | 13002 ft | 200 kts | 93° |
| 2026-05-04 13:08 | -4.59251 | 138.30718 | 13006 ft | 201 kts | 93° |
| 2026-05-04 13:08 | -4.59324 | 138.32114 | 13012 ft | 201 kts | 93° |
| 2026-05-04 13:08 | -4.59398 | 138.33518 | 13012 ft | 201 kts | 93° |
| 2026-05-04 13:08 | -4.59471 | 138.34916 | 13012 ft | 201 kts | 93° |
| 2026-05-04 13:09 | -4.59544 | 138.36321 | 13011 ft | 201 kts | 93° |
| 2026-05-04 13:09 | -4.59618 | 138.37724 | 13011 ft | 202 kts | 93° |
| 2026-05-04 13:09 | -4.59690 | 138.39109 | 13011 ft | 202 kts | 93° |
| 2026-05-04 13:09 | -4.59764 | 138.40512 | 13017 ft | 202 kts | 93° |
| 2026-05-04 13:10 | -4.59837 | 138.41915 | 13017 ft | 202 kts | 93° |
| 2026-05-04 13:10 | -4.59911 | 138.43322 | 13017 ft | 202 kts | 93° |
| 2026-05-04 13:10 | -4.59984 | 138.44726 | 13014 ft | 202 kts | 92° |
| 2026-05-04 13:10 | -4.60058 | 138.46128 | 13014 ft | 202 kts | 92° |
| 2026-05-04 13:11 | -4.60131 | 138.47535 | 13014 ft | 202 kts | 93° |
| 2026-05-04 13:11 | -4.60205 | 138.48942 | 13019 ft | 202 kts | 92° |
| 2026-05-04 13:11 | -4.60278 | 138.50350 | 13019 ft | 202 kts | 92° |
| 2026-05-04 13:11 | -4.60352 | 138.51761 | 13020 ft | 202 kts | 93° |
| 2026-05-04 13:12 | -4.60426 | 138.53169 | 13020 ft | 202 kts | 92° |
| 2026-05-04 13:12 | -4.60500 | 138.54578 | 13020 ft | 202 kts | 92° |
| 2026-05-04 13:12 | -4.60573 | 138.55987 | 13021 ft | 202 kts | 92° |
| 2026-05-04 13:12 | -4.60622 | 138.56922 | 13026 ft | 203 kts | 92° |
| 2026-05-04 13:13 | -4.60696 | 138.58332 | 13026 ft | 203 kts | 92° |
| 2026-05-04 13:13 | -4.60770 | 138.59748 | 13026 ft | 203 kts | 92° |
| 2026-05-04 13:13 | -4.60844 | 138.61160 | 13025 ft | 203 kts | 92° |
| 2026-05-04 13:13 | -4.60918 | 138.62572 | 13026 ft | 203 kts | 92° |
| 2026-05-04 13:14 | -4.60992 | 138.63983 | 13026 ft | 203 kts | 92° |
| 2026-05-04 13:14 | -4.61066 | 138.65395 | 13034 ft | 203 kts | 92° |
| 2026-05-04 13:14 | -4.61139 | 138.66806 | 13033 ft | 203 kts | 92° |
| 2026-05-04 13:14 | -4.61213 | 138.68213 | 13033 ft | 203 kts | 92° |
| 2026-05-04 13:15 | -4.61287 | 138.69626 | 13033 ft | 203 kts | 92° |
| 2026-05-04 13:15 | -4.61361 | 138.71033 | 13033 ft | 203 kts | 92° |
| 2026-05-04 13:15 | -4.61434 | 138.72442 | 13033 ft | 202 kts | 92° |
| 2026-05-04 13:15 | -4.61508 | 138.73852 | 13036 ft | 202 kts | 92° |
| 2026-05-04 13:16 | -4.61582 | 138.75261 | 13033 ft | 203 kts | 92° |
| 2026-05-04 13:16 | -4.61656 | 138.76671 | 13033 ft | 202 kts | 92° |
| 2026-05-04 13:16 | -4.61729 | 138.78079 | 13033 ft | 202 kts | 92° |
| 2026-05-04 13:16 | -4.61803 | 138.79491 | 13033 ft | 202 kts | 92° |
| 2026-05-04 13:17 | -4.61877 | 138.80900 | 13035 ft | 202 kts | 92° |
| 2026-05-04 13:17 | -4.61950 | 138.82307 | 13035 ft | 202 kts | 92° |
| 2026-05-04 13:17 | -4.62024 | 138.83714 | 13035 ft | 202 kts | 92° |
| 2026-05-04 13:17 | -4.62098 | 138.85120 | 13035 ft | 202 kts | 92° |
| 2026-05-04 13:18 | -4.62171 | 138.86527 | 13036 ft | 202 kts | 92° |
| 2026-05-04 13:18 | -4.62244 | 138.87916 | 13034 ft | 202 kts | 92° |
| 2026-05-04 13:18 | -4.62318 | 138.89325 | 13034 ft | 202 kts | 93° |
| 2026-05-04 13:18 | -4.62391 | 138.90731 | 13034 ft | 202 kts | 93° |
| 2026-05-04 13:19 | -4.62465 | 138.92144 | 13032 ft | 202 kts | 92° |
| 2026-05-04 13:19 | -4.62539 | 138.93553 | 13032 ft | 203 kts | 92° |
| 2026-05-04 13:19 | -4.62612 | 138.94963 | 13032 ft | 203 kts | 92° |
| 2026-05-04 13:19 | -4.62289 | 138.96314 | 13023 ft | 202 kts | 58° |
| 2026-05-04 13:20 | -4.61222 | 138.97199 | 13018 ft | 202 kts | 21° |
| 2026-05-04 13:20 | -4.59848 | 138.97448 | 13058 ft | 201 kts | 5° |
| 2026-05-04 13:20 | -4.58458 | 138.97561 | 13125 ft | 199 kts | 4° |
| 2026-05-04 13:20 | -4.57092 | 138.97662 | 13249 ft | 196 kts | 4° |
| 2026-05-04 13:21 | -4.55737 | 138.97761 | 13374 ft | 194 kts | 4° |
| 2026-05-04 13:21 | -4.54399 | 138.97860 | 13499 ft | 192 kts | 4° |
| 2026-05-04 13:21 | -4.53067 | 138.97960 | 13626 ft | 191 kts | 4° |
| 2026-05-04 13:21 | -4.51742 | 138.98058 | 13752 ft | 191 kts | 4° |
| 2026-05-04 13:22 | -4.50420 | 138.98155 | 13876 ft | 190 kts | 4° |
| 2026-05-04 13:22 | -4.49103 | 138.98253 | 13986 ft | 190 kts | 4° |
| 2026-05-04 13:22 | -4.47802 | 138.98349 | 14132 ft | 189 kts | 4° |
| 2026-05-04 13:22 | -4.46491 | 138.98444 | 14244 ft | 189 kts | 4° |
| 2026-05-04 13:23 | -4.45184 | 138.98537 | 14357 ft | 188 kts | 4° |
| 2026-05-04 13:23 | -4.43885 | 138.98632 | 14470 ft | 187 kts | 4° |
| 2026-05-04 13:23 | -4.42584 | 138.98727 | 14581 ft | 187 kts | 4° |
| 2026-05-04 13:23 | -4.41290 | 138.98820 | 14698 ft | 186 kts | 4° |
| 2026-05-04 13:24 | -4.39997 | 138.98912 | 14812 ft | 186 kts | 4° |
| 2026-05-04 13:24 | -4.38705 | 138.99004 | 14929 ft | 186 kts | 4° |
| 2026-05-04 13:24 | -4.37417 | 138.99094 | 15040 ft | 185 kts | 4° |
| 2026-05-04 13:25 | -4.34809 | 138.99275 | 15122 ft | 192 kts | 4° |
| 2026-05-04 13:25 | -4.33459 | 138.99368 | 15124 ft | 196 kts | 4° |
| 2026-05-04 13:25 | -4.32086 | 138.99463 | 15124 ft | 199 kts | 4° |
| 2026-05-04 13:25 | -4.30692 | 138.99558 | 15042 ft | 205 kts | 4° |
| 2026-05-04 13:26 | -4.29232 | 138.99650 | 14866 ft | 214 kts | 4° |
| 2026-05-04 13:26 | -4.27720 | 138.99743 | 14679 ft | 221 kts | 4° |
| 2026-05-04 13:26 | -4.26173 | 138.99840 | 14499 ft | 225 kts | 4° |
| 2026-05-04 13:26 | -4.24603 | 138.99940 | 14327 ft | 227 kts | 4° |
| 2026-05-04 13:27 | -4.23113 | 139.00038 | 14040 ft | 193 kts | 4° |
| 2026-05-04 13:27 | -4.21942 | 138.99885 | 13701 ft | 155 kts | 337° |
| 2026-05-04 13:27 | -4.21041 | 138.99457 | 13324 ft | 138 kts | 334° |
| 2026-05-04 13:27 | -4.20203 | 138.99042 | 12939 ft | 129 kts | 334° |
| 2026-05-04 13:28 | -4.19427 | 138.98656 | 12566 ft | 124 kts | 334° |
| 2026-05-04 13:28 | -4.18636 | 138.98264 | 12081 ft | 128 kts | 334° |
| 2026-05-04 13:28 | -4.17830 | 138.97864 | 11613 ft | 130 kts | 334° |
| 2026-05-04 13:28 | -4.17019 | 138.97461 | 11144 ft | 131 kts | 333° |
| 2026-05-04 13:29 | -4.16203 | 138.97055 | 10682 ft | 131 kts | 334° |
| 2026-05-04 13:29 | -4.15392 | 138.96649 | 10227 ft | 130 kts | 334° |
| 2026-05-04 13:29 | -4.14581 | 138.96243 | 9748 ft | 130 kts | 334° |
| 2026-05-04 13:29 | -4.13773 | 138.95838 | 9247 ft | 129 kts | 334° |
| 2026-05-04 13:30 | -4.12970 | 138.95437 | 8753 ft | 129 kts | 334° |
| 2026-05-04 13:30 | -4.12170 | 138.95039 | 8270 ft | 128 kts | 334° |
| 2026-05-04 13:30 | -4.11370 | 138.94643 | 7796 ft | 128 kts | 333° |
| 2026-05-04 13:30 | -4.10575 | 138.94248 | 7390 ft | 127 kts | 333° |
| 2026-05-04 13:31 | -4.09783 | 138.93854 | 6940 ft | 127 kts | 333° |
| 2026-05-04 13:31 | -4.08995 | 138.93461 | 6420 ft | 126 kts | 333° |
| 2026-05-04 13:31 | -4.08225 | 138.93087 | 5997 ft | 120 kts | 337° |
| 2026-05-04 13:31 | -4.07502 | 138.93128 | 5825 ft | 100 kts | 32° |
| 2026-05-04 13:32 | -4.07093 | 138.93641 | 5655 ft | 91 kts | 68° |
| 2026-05-04 13:32 | -4.07213 | 138.94210 | 5626 ft | 89 kts | 153° |
| 2026-05-04 13:32 | -4.07850 | 138.94375 | 5575 ft | 99 kts | 167° |
| 2026-05-04 13:32 | -4.08491 | 138.94596 | 5476 ft | 94 kts | 154° |
| 2026-05-04 13:33 | -4.09066 | 138.94893 | 5390 ft | 87 kts | 152° |
| 2026-05-04 13:33 | -4.09491 | 138.95116 | 5382 ft | 42 kts | 153° |
| 2026-05-04 13:33 | -4.09661 | 138.95215 | 5378 ft | 17 kts | 125° |
| 2026-05-04 13:33 | -4.09677 | 138.95214 | 5385 ft | 7 kts | 330° |
| 2026-05-04 13:34 | -4.09632 | 138.95189 | 5378 ft | 10 kts | 331° |
| 2026-05-04 13:34 | -4.09551 | 138.95150 | 5389 ft | 13 kts | 331° |
| 2026-05-04 13:34 | -4.09520 | 138.95084 | 5379 ft | 10 kts | 270° |
| 2026-05-04 13:34 | -4.09536 | 138.95027 | 5386 ft | 8 kts | 242° |
| 2026-05-04 13:35 | -4.09552 | 138.94997 | 5382 ft | 0 kts | 244° |
| 2026-05-04 13:35 | -4.09555 | 138.94992 | 5386 ft | 0 kts | 242° |